Terminal Aerodrome Forecast
Issued by NWS

Home | Current Version | Previous Version | Text Only | Print | Product List | Glossary On
Versions: 1 2 3 4 5 6 7 8 9 10 11 12 13 14 15 16 17 18 19 20 21 22 23 24 25 26 27 28 29 30 31
000
FTUS45 KBYZ 202124 AAA
TAFLVM
TAF AMD
KLVM 202124Z 2021/2118 24011G17KT P6SM VCTS SCT060CB BKN100
      TEMPO 2022/2023 VRB20G38KT -TSRA BKN040CB
     FM210400 21010KT P6SM SCT080 BKN100
     FM211400 27012KT P6SM VCSH BKN070=

USA.gov is the U.S. government's official web portal to all federal, state and local government web resources and services.